Time;durP1;ratioP1;P1;durP2;ratioP2;P2;SDS_P1;SDS_P2;PMS_P1;PMS_P2;Temp;Humidity;BMP_temperature;BMP_pressure;BME280_temperature;BME280_humidity;BME280_pressure;Samples;Min_cycle;Max_cycle;Signal;HPM_P1;HPM_P2
2023/08/06 00:01:11;;;;;;;5.80;2.22;;;;;;;20.52;65.46;92765.34;5029496;28;20064;-75
2023/08/06 00:03:37;;;;;;;4.85;2.63;;;;;;;20.58;64.77;92829.31;5027566;28;20045;-73
2023/08/06 00:06:04;;;;;;;7.78;3.15;;;;;;;20.50;65.41;92822.47;5019428;28;20029;-73
2023/08/06 00:08:30;;;;;;;7.28;2.75;;;;;;;20.35;65.56;92814.88;5025179;28;20037;-73
2023/08/06 00:10:55;;;;;;;5.75;2.70;;;;;;;20.34;65.87;92824.91;5029487;28;20067;-74
2023/08/06 00:13:20;;;;;;;7.78;2.70;;;;;;;20.39;65.20;92813.66;5026464;28;20132;-74
2023/08/06 00:15:46;;;;;;;6.70;2.90;;;;;;;20.24;65.74;92787.22;5029675;28;20030;-75
2023/08/06 00:18:11;;;;;;;6.00;3.85;;;;;;;20.45;65.77;92814.00;5028750;28;20033;-74
2023/08/06 00:20:39;;;;;;;4.55;2.17;;;;;;;20.32;65.34;92816.44;5027801;28;20055;-73
2023/08/06 00:23:04;;;;;;;5.50;2.85;;;;;;;20.38;65.34;92820.25;5011896;28;20067;-74
2023/08/06 00:25:30;;;;;;;6.63;2.42;;;;;;;20.31;65.70;92808.72;5027169;28;20033;-74
2023/08/06 00:27:56;;;;;;;4.57;2.63;;;;;;;20.38;65.60;92825.66;5027524;28;20041;-74
2023/08/06 00:30:21;;;;;;;4.53;2.03;;;;;;;20.48;65.26;92821.34;5013192;28;20025;-74
2023/08/06 00:32:47;;;;;;;4.15;2.65;;;;;;;20.48;64.84;92803.16;5026947;28;20396;-75
2023/08/06 00:35:13;;;;;;;3.97;2.25;;;;;;;20.36;64.83;92786.69;5029372;28;20036;-74
2023/08/06 00:37:39;;;;;;;5.88;2.58;;;;;;;20.45;64.92;92806.69;5025249;28;20124;-75
2023/08/06 00:40:06;;;;;;;7.82;2.53;;;;;;;20.48;65.10;92800.47;5026166;28;20040;-74
2023/08/06 00:42:31;;;;;;;3.60;1.92;;;;;;;20.38;65.47;92781.69;5031043;28;20411;-75
2023/08/06 00:44:56;;;;;;;3.22;2.05;;;;;;;20.43;65.41;92787.44;5022407;28;20036;-72
2023/08/06 00:47:22;;;;;;;4.35;2.28;;;;;;;20.47;65.60;92790.84;5030974;28;20660;-73
2023/08/06 00:49:47;;;;;;;3.42;2.17;;;;;;;20.49;64.88;92783.09;5024063;28;20037;-74
2023/08/06 00:52:13;;;;;;;2.95;2.50;;;;;;;20.44;64.79;92788.94;5029126;28;20041;-74
2023/08/06 00:54:39;;;;;;;3.10;2.33;;;;;;;20.33;65.20;92769.38;5023289;28;21553;-74
2023/08/06 00:57:07;;;;;;;2.90;1.90;;;;;;;20.30;65.32;92772.09;5029053;28;20641;-74
2023/08/06 00:59:32;;;;;;;3.42;2.75;;;;;;;20.37;65.42;92780.91;5012849;28;20792;-75
2023/08/06 01:01:58;;;;;;;4.53;2.28;;;;;;;20.25;65.79;92762.50;5026085;28;20052;-74
2023/08/06 01:04:23;;;;;;;3.47;2.67;;;;;;;20.34;65.75;92762.78;5025589;28;20148;-75
2023/08/06 01:07:09;;;;;;;2.95;2.10;;;;;;;20.34;65.01;92754.69;5021185;28;20078;-75
2023/08/06 01:09:40;;;;;;;5.80;2.90;;;;;;;20.26;64.92;92728.16;5029528;28;20523;-74
2023/08/06 01:12:18;;;;;;;4.25;2.72;;;;;;;20.42;64.61;92755.41;5020019;28;20029;-74
2023/08/06 01:15:11;;;;;;;5.20;2.60;;;;;;;20.38;64.50;92754.69;5029662;28;20154;-73
2023/08/06 01:17:37;;;;;;;5.82;2.65;;;;;;;20.30;64.60;92747.78;5009796;28;20124;-74
2023/08/06 01:20:03;;;;;;;7.20;5.57;;;;;;;20.24;65.81;92747.44;5027179;28;20400;-74
2023/08/06 01:22:29;;;;;;;11.88;4.97;;;;;;;20.26;65.93;92737.03;5026835;28;20041;-75
2023/08/06 01:24:54;;;;;;;6.28;3.83;;;;;;;20.30;65.55;92745.09;5028902;28;20041;-74
2023/08/06 01:27:33;;;;;;;8.13;3.03;;;;;;;20.21;65.65;92744.78;5007450;28;20033;-74
2023/08/06 01:30:20;;;;;;;5.03;2.53;;;;;;;20.25;65.30;92756.31;5029880;28;20035;-74
2023/08/06 01:32:50;;;;;;;3.03;2.30;;;;;;;20.09;65.64;92729.84;5028636;28;20432;-74
2023/08/06 01:35:17;;;;;;;6.40;2.28;;;;;;;20.15;65.94;92730.94;5012868;28;20025;-74
2023/08/06 01:37:43;;;;;;;5.00;2.72;;;;;;;20.12;65.73;92710.13;5027098;28;20036;-75
2023/08/06 01:40:13;;;;;;;4.57;2.22;;;;;;;19.99;66.28;92693.69;5026987;28;20620;-74
2023/08/06 01:42:39;;;;;;;3.80;2.63;;;;;;;20.13;66.62;92722.47;5026860;28;20112;-74
2023/08/06 01:45:07;;;;;;;3.88;3.47;;;;;;;19.93;67.43;92724.19;5028674;28;20136;-74
2023/08/06 01:47:32;;;;;;;8.05;3.83;;;;;;;20.04;66.97;92738.38;5027912;28;20037;-74
2023/08/06 01:49:57;;;;;;;5.50;2.80;;;;;;;20.17;66.26;92734.03;5022477;28;20042;-75
2023/08/06 01:52:23;;;;;;;4.43;2.67;;;;;;;20.12;66.22;92737.13;5028491;28;20033;-74
2023/08/06 01:54:48;;;;;;;5.32;3.20;;;;;;;20.07;66.33;92734.84;5024005;28;20649;-75
2023/08/06 01:57:13;;;;;;;5.95;3.33;;;;;;;20.01;67.04;92733.75;5024773;28;20084;-74
2023/08/06 01:59:39;;;;;;;6.07;3.10;;;;;;;20.00;66.71;92727.56;5026947;28;20480;-75
2023/08/06 02:02:04;;;;;;;6.93;3.20;;;;;;;19.99;66.79;92728.00;5026984;28;20033;-75
2023/08/06 02:04:29;;;;;;;4.20;3.08;;;;;;;20.04;66.63;92722.19;5027446;28;20040;-74
2023/08/06 02:06:55;;;;;;;4.90;3.72;;;;;;;20.02;66.52;92722.56;5023790;28;20052;-75
2023/08/06 02:09:20;;;;;;;6.68;2.67;;;;;;;19.96;65.83;92689.06;5028336;28;20546;-74
2023/08/06 02:11:46;;;;;;;2.20;1.98;;;;;;;20.03;65.96;92712.53;5011262;28;20061;-75
2023/08/06 02:14:11;;;;;;;3.10;2.75;;;;;;;20.02;66.01;92713.69;5029839;28;20041;-74
2023/08/06 02:16:37;;;;;;;4.82;2.95;;;;;;;19.97;66.05;92720.28;5025305;28;20644;-75
2023/08/06 02:19:02;;;;;;;3.10;2.60;;;;;;;20.03;65.69;92723.34;5025762;28;20378;-73
2023/08/06 02:21:28;;;;;;;3.65;2.20;;;;;;;19.98;65.71;92748.81;5028223;28;20551;-74
2023/08/06 02:23:53;;;;;;;11.65;4.10;;;;;;;20.03;65.87;92726.03;5027522;28;20036;-74
2023/08/06 02:26:18;;;;;;;7.90;3.50;;;;;;;19.79;66.98;92705.41;5006798;28;20053;-74
2023/08/06 02:28:44;;;;;;;7.90;3.15;;;;;;;19.90;66.59;92730.34;5027584;28;20557;-75
2023/08/06 02:31:09;;;;;;;5.47;2.80;;;;;;;19.78;67.19;92711.97;5026147;28;20100;-75
2023/08/06 02:33:34;;;;;;;5.00;2.72;;;;;;;19.69;66.68;92691.63;5027384;28;20029;-74
2023/08/06 02:36:01;;;;;;;3.42;2.50;;;;;;;;;;5029332;28;20496;-74
2023/08/06 02:38:26;;;;;;;5.32;2.50;;;;;;;19.84;67.25;92738.13;5024764;28;20045;-74
2023/08/06 02:40:52;;;;;;;3.90;2.40;;;;;;;19.81;66.91;92738.13;5025989;28;20567;-74
2023/08/06 02:43:17;;;;;;;5.35;2.88;;;;;;;19.82;67.17;92745.06;5024660;28;20421;-75
2023/08/06 02:45:42;;;;;;;2.72;2.10;;;;;;;19.78;68.19;92750.50;5027486;28;20040;-75
2023/08/06 02:48:08;;;;;;;4.38;3.00;;;;;;;19.74;67.90;92731.66;5028909;28;20516;-75
2023/08/06 02:50:41;;;;;;;3.72;2.10;;;;;;;19.94;66.45;92720.31;5025832;28;20048;-73
2023/08/06 02:53:07;;;;;;;4.65;2.38;;;;;;;19.95;66.82;92719.91;5026881;28;20021;-73
2023/08/06 02:55:33;;;;;;;4.53;2.60;;;;;;;19.94;66.98;92707.59;5025873;28;20037;-73
2023/08/06 02:58:00;;;;;;;4.30;3.00;;;;;;;19.91;67.91;92699.53;5026642;28;20034;-74
2023/08/06 03:00:25;;;;;;;4.93;2.42;;;;;;;19.84;68.14;92705.75;5027384;28;20020;-73
2023/08/06 03:02:51;;;;;;;4.57;2.70;;;;;;;19.93;67.64;92713.38;5031332;28;20045;-73
2023/08/06 03:05:16;;;;;;;2.92;2.42;;;;;;;19.91;67.89;92673.31;5028139;28;20065;-73
2023/08/06 03:07:41;;;;;;;6.35;2.35;;;;;;;19.79;67.99;92665.72;5032154;28;20037;-73
2023/08/06 03:10:07;;;;;;;3.60;2.35;;;;;;;19.82;68.01;92691.88;5030477;28;20076;-74
2023/08/06 03:12:33;;;;;;;3.88;2.58;;;;;;;19.93;68.47;92710.69;5030560;28;20053;-73
2023/08/06 03:14:58;;;;;;;2.53;2.15;;;;;;;19.87;68.05;92714.97;5031448;28;20033;-73
2023/08/06 03:17:23;;;;;;;1.77;1.48;;;;;;;19.91;67.37;92689.50;5028489;28;20914;-73
2023/08/06 03:19:49;;;;;;;3.17;2.00;;;;;;;19.84;67.52;92656.44;5031490;28;20126;-73
2023/08/06 03:22:14;;;;;;;2.47;1.77;;;;;;;19.85;67.74;92657.97;5023925;28;20033;-73
2023/08/06 03:24:39;;;;;;;7.85;3.17;;;;;;;19.95;67.41;92674.03;5031536;28;20405;-73
2023/08/06 03:27:05;;;;;;;3.33;2.25;;;;;;;19.99;67.13;92691.00;5029891;28;20112;-72
2023/08/06 03:29:30;;;;;;;3.20;1.83;;;;;;;19.87;67.70;92675.28;5030595;28;20240;-73
2023/08/06 03:31:56;;;;;;;3.10;2.20;;;;;;;19.81;69.28;92711.94;5025828;28;20044;-74
2023/08/06 03:34:21;;;;;;;4.55;2.20;;;;;;;19.81;69.19;92716.56;5032242;28;20523;-74
2023/08/06 03:36:47;;;;;;;3.50;2.30;;;;;;;19.84;68.87;92710.38;5030026;28;20029;-74
2023/08/06 03:39:13;;;;;;;4.78;2.53;;;;;;;19.86;69.33;92716.13;5032053;28;20033;-74
2023/08/06 03:41:39;;;;;;;2.88;2.40;;;;;;;19.95;68.73;92711.03;5030357;28;20029;-75
2023/08/06 03:44:05;;;;;;;4.32;2.90;;;;;;;19.99;68.23;92719.91;5024564;28;20037;-73
2023/08/06 03:46:33;;;;;;;4.13;2.65;;;;;;;19.94;68.75;92714.94;5030370;28;20033;-75
2023/08/06 03:49:02;;;;;;;3.65;2.17;;;;;;;19.94;68.79;92720.31;5031142;28;20049;-73
2023/08/06 03:51:28;;;;;;;2.97;2.30;;;;;;;20.04;68.35;92722.91;5028491;28;20819;-75
2023/08/06 03:53:53;;;;;;;2.38;1.80;;;;;;;20.01;67.89;92720.25;5030801;28;20026;-74
2023/08/06 03:56:18;;;;;;;2.20;2.00;;;;;;;20.02;68.03;92737.97;5026983;28;20041;-75
2023/08/06 03:58:44;;;;;;;3.47;2.03;;;;;;;19.99;68.15;92733.41;5026959;28;20029;-73
2023/08/06 04:01:09;;;;;;;3.72;2.50;;;;;;;19.98;68.14;92737.25;5030987;28;20029;-74
2023/08/06 04:03:35;;;;;;;3.55;2.40;;;;;;;20.00;67.76;92746.47;5025737;28;20041;-75
2023/08/06 04:06:03;;;;;;;6.65;2.70;;;;;;;20.10;68.13;92752.94;5028983;28;20519;-74
2023/08/06 04:08:28;;;;;;;2.80;2.40;;;;;;;20.00;68.98;92740.31;5025900;28;20752;-74
2023/08/06 04:10:54;;;;;;;4.10;3.17;;;;;;;20.04;69.20;92732.97;5026858;28;20038;-74
2023/08/06 04:13:20;;;;;;;2.72;2.47;;;;;;;20.13;69.04;92744.06;5033424;28;20128;-74
2023/08/06 04:15:45;;;;;;;6.13;2.90;;;;;;;20.10;69.20;92750.25;5025291;28;20068;-73
2023/08/06 04:18:11;;;;;;;4.78;3.08;;;;;;;20.10;69.06;92744.84;5029320;28;20120;-73
2023/08/06 04:20:45;;;;;;;5.10;3.50;;;;;;;20.05;69.30;92742.56;5026319;28;20810;-75
2023/08/06 04:23:11;;;;;;;7.63;2.78;;;;;;;20.16;69.87;92749.47;5030046;28;20076;-74
2023/08/06 04:25:36;;;;;;;3.95;2.65;;;;;;;20.24;69.18;92749.41;5029964;28;20961;-74
2023/08/06 04:28:02;;;;;;;4.53;3.03;;;;;;;20.09;69.56;92725.19;5028169;28;20508;-75
2023/08/06 04:30:27;;;;;;;5.97;3.60;;;;;;;20.27;69.19;92741.28;5028903;28;20449;-75
2023/08/06 04:32:52;;;;;;;5.53;3.30;;;;;;;20.16;69.24;92721.66;5030089;28;20032;-74
2023/08/06 04:35:18;;;;;;;3.63;2.60;;;;;;;20.17;68.81;92718.59;5027389;28;20041;-75
2023/08/06 04:37:43;;;;;;;3.67;2.83;;;;;;;20.06;68.96;92719.81;5025706;28;20030;-73
2023/08/06 04:40:09;;;;;;;4.25;2.90;;;;;;;19.99;69.56;92695.63;5029645;28;20053;-74
2023/08/06 04:42:35;;;;;;;3.55;3.20;;;;;;;20.01;69.57;92687.88;5026950;28;20045;-75
2023/08/06 04:45:01;;;;;;;6.10;3.65;;;;;;;20.18;69.40;92700.47;5027956;28;20472;-75
2023/08/06 04:47:27;;;;;;;4.30;3.50;;;;;;;20.24;70.02;92692.72;5031169;28;20060;-74
2023/08/06 04:49:53;;;;;;;5.30;3.70;;;;;;;20.16;69.33;92686.56;5025019;28;20160;-76
2023/08/06 04:52:18;;;;;;;4.82;3.33;;;;;;;20.14;69.21;92664.63;5029850;28;20121;-73
2023/08/06 04:54:44;;;;;;;6.30;3.50;;;;;;;20.19;69.26;92664.19;5028667;28;20584;-74
2023/08/06 04:57:09;;;;;;;4.10;3.67;;;;;;;20.23;69.49;92673.06;5030258;28;20036;-73
2023/08/06 04:59:35;;;;;;;6.63;3.70;;;;;;;20.23;69.62;92653.41;5027511;28;20013;-73
2023/08/06 05:02:01;;;;;;;4.60;3.63;;;;;;;20.29;68.75;92644.44;5027535;28;20067;-73
2023/08/06 05:04:27;;;;;;;6.25;4.03;;;;;;;20.25;69.02;92642.94;5026281;28;20041;-73
2023/08/06 05:06:52;;;;;;;5.70;3.97;;;;;;;20.23;69.34;92646.06;5008646;28;20401;-75
2023/08/06 05:09:18;;;;;;;6.60;4.25;;;;;;;20.13;69.58;92628.00;5027651;28;20046;-75
2023/08/06 05:11:43;;;;;;;4.85;4.35;;;;;;;20.29;69.01;92662.59;5026700;28;20087;-74
2023/08/06 05:14:08;;;;;;;5.63;4.13;;;;;;;20.06;69.55;92652.34;5007790;28;20040;-74
2023/08/06 05:16:34;;;;;;;5.47;4.22;;;;;;;20.11;71.27;92654.63;5028292;28;20037;-75
2023/08/06 05:18:59;;;;;;;6.20;5.28;;;;;;;20.30;70.72;92667.56;5030326;28;20052;-75
2023/08/06 05:21:24;;;;;;;6.65;4.57;;;;;;;20.22;70.20;92665.34;5020805;28;20106;-76
2023/08/06 05:23:50;;;;;;;7.85;5.43;;;;;;;20.23;71.21;92653.41;5027060;28;20502;-75
2023/08/06 05:26:18;;;;;;;5.00;4.50;;;;;;;20.42;69.68;92663.59;5027473;28;20420;-76
2023/08/06 05:28:44;;;;;;;4.65;4.25;;;;;;;20.28;70.23;92653.72;5026305;28;20040;-75
2023/08/06 05:31:10;;;;;;;4.70;4.20;;;;;;;20.30;69.25;92654.06;5026560;28;20044;-75
2023/08/06 05:33:35;;;;;;;4.65;4.25;;;;;;;20.32;70.02;92649.03;5028462;28;20036;-75
2023/08/06 05:36:00;;;;;;;5.78;4.82;;;;;;;20.22;70.88;92644.53;5024886;28;20029;-75
2023/08/06 05:38:26;;;;;;;5.22;4.72;;;;;;;19.94;71.49;92650.16;5029104;28;20420;-75
2023/08/06 05:40:51;;;;;;;6.50;5.68;;;;;;;20.06;71.02;92665.84;5025567;28;20420;-76
2023/08/06 05:43:17;;;;;;;6.32;4.00;;;;;;;20.03;70.17;92653.16;5019712;28;20055;-75
2023/08/06 05:45:46;;;;;;;4.93;4.30;;;;;;;19.90;70.71;92644.03;5024915;28;20061;-73
2023/08/06 05:48:12;;;;;;;6.93;6.07;;;;;;;19.81;69.88;92651.81;5028223;28;20037;-74
2023/08/06 05:50:37;;;;;;;7.72;6.55;;;;;;;19.60;70.89;92637.34;5027399;28;20358;-73
2023/08/06 05:53:02;;;;;;;8.25;7.07;;;;;;;19.61;70.49;92649.66;5028934;28;20443;-74
2023/08/06 05:55:28;;;;;;;8.48;7.50;;;;;;;19.77;71.92;92672.66;5028187;28;20040;-74
2023/08/06 05:57:53;;;;;;;8.23;7.43;;;;;;;19.72;71.31;92669.22;5029785;28;20060;-74
2023/08/06 06:00:19;;;;;;;9.77;7.30;;;;;;;19.64;71.54;92683.94;5029937;28;20520;-74
2023/08/06 06:02:45;;;;;;;9.63;8.20;;;;;;;19.65;71.94;92682.75;5023420;28;20163;-73
2023/08/06 06:05:11;;;;;;;11.95;9.18;;;;;;;19.79;71.74;92684.59;5030346;28;20405;-75
2023/08/06 06:07:36;;;;;;;14.15;9.05;;;;;;;19.93;71.35;92683.72;5021426;28;20048;-74
2023/08/06 06:10:01;;;;;;;11.13;9.02;;;;;;;19.89;70.45;92680.28;5015904;28;20037;-74
2023/08/06 06:12:27;;;;;;;12.43;10.95;;;;;;;19.73;69.73;92694.28;5025364;28;20045;-74
2023/08/06 06:14:52;;;;;;;12.57;10.60;;;;;;;19.69;69.31;92686.22;5027405;28;20064;-73
2023/08/06 06:17:18;;;;;;;12.20;10.77;;;;;;;19.75;70.75;92702.72;5010654;28;20799;-75
2023/08/06 06:19:43;;;;;;;14.23;11.15;;;;;;;19.61;68.78;92676.63;5025634;28;20621;-72
2023/08/06 06:22:08;;;;;;;15.65;11.88;;;;;;;19.66;69.32;92695.09;5027710;28;20045;-74
2023/08/06 06:24:34;;;;;;;14.13;11.98;;;;;;;19.63;69.48;92695.13;5027614;28;20374;-74
2023/08/06 06:27:00;;;;;;;15.20;11.38;;;;;;;19.50;68.71;92673.25;5027624;28;20514;-74
2023/08/06 06:29:25;;;;;;;15.23;11.70;;;;;;;19.59;69.35;92700.53;5028460;28;20036;-73
2023/08/06 06:31:50;;;;;;;11.80;10.43;;;;;;;19.76;69.06;92709.66;5010741;28;20699;-73
2023/08/06 06:34:16;;;;;;;13.75;10.95;;;;;;;19.75;69.50;92716.97;5026045;28;20335;-74
2023/08/06 06:36:41;;;;;;;13.18;10.98;;;;;;;19.74;70.29;92722.78;5030156;28;20037;-74
2023/08/06 06:39:08;;;;;;;12.52;10.60;;;;;;;19.70;69.36;92717.41;5031002;28;20131;-73
2023/08/06 06:41:33;;;;;;;15.75;11.07;;;;;;;19.83;69.22;92725.81;5032855;28;20055;-74
2023/08/06 06:43:58;;;;;;;14.93;11.55;;;;;;;19.83;67.68;92741.22;5030275;28;20030;-73
2023/08/06 06:46:24;;;;;;;12.20;11.00;;;;;;;19.58;67.91;92736.00;5032964;28;20433;-74
2023/08/06 06:48:49;;;;;;;10.40;9.30;;;;;;;19.45;67.71;92738.38;5030934;28;20381;-74
2023/08/06 06:51:14;;;;;;;11.98;10.10;;;;;;;19.41;69.22;92742.97;5028212;28;20116;-73
2023/08/06 06:53:40;;;;;;;11.02;9.23;;;;;;;19.48;68.59;92759.16;5030437;28;20415;-73
2023/08/06 06:56:05;;;;;;;9.07;7.90;;;;;;;19.56;66.95;92757.19;5031705;28;20067;-74
2023/08/06 06:58:32;;;;;;;8.15;7.15;;;;;;;19.61;66.75;92765.63;5007741;28;20087;-74
2023/08/06 07:00:57;;;;;;;18.60;8.32;;;;;;;19.62;65.86;92753.69;5031997;28;20194;-73
2023/08/06 07:03:23;;;;;;;8.20;7.20;;;;;;;19.73;65.49;92780.59;5029921;28;20750;-74
2023/08/06 07:05:49;;;;;;;7.72;6.97;;;;;;;19.80;65.04;92783.22;5029028;28;20049;-73
2023/08/06 07:08:15;;;;;;;7.63;6.93;;;;;;;19.89;63.13;92788.19;5030470;28;20617;-73
2023/08/06 07:10:41;;;;;;;6.63;5.93;;;;;;;19.80;62.10;92774.41;5028665;28;20082;-75
2023/08/06 07:13:06;;;;;;;5.57;4.70;;;;;;;19.89;60.34;92790.91;5029466;28;20030;-74
2023/08/06 07:15:32;;;;;;;4.82;4.35;;;;;;;19.82;60.34;92777.44;5025965;28;20029;-74
2023/08/06 07:17:57;;;;;;;4.97;3.38;;;;;;;20.04;58.43;92789.63;5031502;28;20050;-75
2023/08/06 07:20:23;;;;;;;4.65;4.10;;;;;;;20.07;58.66;92772.66;5031817;28;20582;-75
2023/08/06 07:22:49;;;;;;;3.33;2.90;;;;;;;20.08;57.54;92774.19;5013701;28;20021;-75
2023/08/06 07:25:15;;;;;;;2.75;2.40;;;;;;;20.00;55.72;92768.06;5032414;28;20432;-73
2023/08/06 07:27:40;;;;;;;3.42;2.60;;;;;;;20.19;54.67;92791.06;5028122;28;20040;-73
2023/08/06 07:30:06;;;;;;;3.58;2.15;;;;;;;20.28;53.67;92798.75;5010251;28;20116;-75
2023/08/06 07:32:32;;;;;;;3.75;2.08;;;;;;;20.30;53.30;92796.38;5030128;28;20038;-76
2023/08/06 07:35:00;;;;;;;5.55;2.00;;;;;;;20.24;54.45;92787.94;5026233;28;20045;-75
2023/08/06 07:37:28;;;;;;;6.95;2.63;;;;;;;20.36;54.00;92787.47;5029804;28;20394;-74
2023/08/06 07:39:54;;;;;;;2.70;2.45;;;;;;;20.33;54.17;92774.78;5030442;28;20092;-74
2023/08/06 07:42:20;;;;;;;3.15;2.42;;;;;;;20.46;54.31;92783.91;5031697;28;20843;-74
2023/08/06 07:44:53;;;;;;;2.60;2.35;;;;;;;20.42;53.43;92785.88;5030689;28;20052;-74
2023/08/06 07:47:19;;;;;;;4.03;2.53;;;;;;;20.43;54.29;92767.75;5028416;28;20564;-74
2023/08/06 07:49:44;;;;;;;3.63;2.92;;;;;;;20.49;54.20;92776.94;5025522;28;20132;-75
2023/08/06 07:52:11;;;;;;;3.38;2.63;;;;;;;20.58;53.87;92775.28;5016406;28;20037;-75
2023/08/06 07:54:36;;;;;;;4.40;2.80;;;;;;;20.67;52.37;92771.38;5010269;28;20045;-75
2023/08/06 07:57:01;;;;;;;2.72;2.53;;;;;;;20.77;52.36;92781.31;5028634;28;20037;-74
2023/08/06 07:59:27;;;;;;;4.40;2.53;;;;;;;20.86;53.04;92778.91;5030213;28;20033;-75
2023/08/06 08:01:52;;;;;;;5.65;2.95;;;;;;;20.95;51.99;92779.22;5028817;28;20048;-75
2023/08/06 08:04:17;;;;;;;5.38;3.20;;;;;;;20.93;53.13;92768.78;5027922;28;20131;-74
2023/08/06 08:06:43;;;;;;;4.28;2.95;;;;;;;21.12;51.64;92774.78;5030788;28;20048;-74
2023/08/06 08:09:08;;;;;;;5.10;3.15;;;;;;;20.78;51.26;92761.97;5023531;28;20029;-74
2023/08/06 08:11:33;;;;;;;9.63;4.00;;;;;;;20.82;52.21;92764.66;5030490;28;20025;-74
2023/08/06 08:13:59;;;;;;;5.18;3.28;;;;;;;20.77;53.70;92779.38;5026086;28;20463;-74
2023/08/06 08:16:24;;;;;;;11.10;3.60;;;;;;;20.83;53.77;92785.09;5016302;28;20045;-75
2023/08/06 08:18:49;;;;;;;4.07;3.30;;;;;;;20.73;53.22;92748.91;5030199;28;20033;-75
2023/08/06 08:21:15;;;;;;;4.13;3.75;;;;;;;20.88;53.10;92776.56;5029879;28;20029;-74
2023/08/06 08:23:42;;;;;;;4.35;3.65;;;;;;;20.79;51.97;92766.22;5026124;28;20080;-75
2023/08/06 08:26:07;;;;;;;4.20;3.90;;;;;;;20.89;51.97;92788.91;5028317;28;20162;-73
2023/08/06 08:28:32;;;;;;;5.20;4.70;;;;;;;20.83;52.72;92787.78;5028574;28;20025;-75
2023/08/06 08:30:58;;;;;;;8.70;4.63;;;;;;;20.65;53.78;92768.31;5028658;28;20472;-74
2023/08/06 08:33:23;;;;;;;6.03;3.40;;;;;;;20.73;53.33;92764.38;5028672;28;20029;-75
2023/08/06 08:35:49;;;;;;;5.13;4.63;;;;;;;20.66;51.88;92769.84;5028031;28;20037;-73
2023/08/06 08:38:14;;;;;;;5.30;4.28;;;;;;;20.65;53.65;92790.69;5029574;28;20676;-74
2023/08/06 08:40:47;;;;;;;3.20;2.90;;;;;;;20.70;51.86;92773.28;5015913;28;20678;-73
2023/08/06 08:43:13;;;;;;;3.65;3.00;;;;;;;20.70;51.14;92781.38;5025179;28;20029;-73
2023/08/06 08:45:41;;;;;;;6.35;3.70;;;;;;;20.87;52.89;92775.84;5028719;28;20040;-73
2023/08/06 08:48:08;;;;;;;3.53;3.20;;;;;;;20.85;52.63;92771.97;5028184;28;20083;-73
2023/08/06 08:50:33;;;;;;;5.43;3.10;;;;;;;20.89;51.35;92753.78;5028317;28;20107;-73
2023/08/06 08:53:00;;;;;;;3.58;2.88;;;;;;;20.91;51.19;92748.75;5028531;28;20049;-76
2023/08/06 08:55:25;;;;;;;6.95;3.95;;;;;;;21.02;50.53;92755.56;5026846;28;20033;-73
2023/08/06 08:57:51;;;;;;;3.90;3.20;;;;;;;21.12;50.36;92753.16;5026562;28;20679;-75
2023/08/06 09:00:17;;;;;;;7.72;4.00;;;;;;;21.14;50.32;92756.22;5028926;28;20099;-75
2023/08/06 09:02:44;;;;;;;3.92;3.08;;;;;;;21.10;49.22;92745.44;5028954;28;20081;-74
2023/08/06 09:05:10;;;;;;;4.20;3.17;;;;;;;21.06;49.07;92728.50;5028896;28;20041;-74
2023/08/06 09:07:42;;;;;;;3.75;3.42;;;;;;;21.29;49.08;92761.03;5026485;28;20040;-75
2023/08/06 09:10:10;;;;;;;4.13;3.70;;;;;;;21.24;50.96;92742.56;5026299;28;20531;-74
2023/08/06 09:12:36;;;;;;;2.78;2.47;;;;;;;21.31;48.94;92766.81;5026298;28;20714;-75
2023/08/06 09:15:03;;;;;;;4.07;3.13;;;;;;;21.24;49.08;92755.31;5030464;28;20096;-75
2023/08/06 09:17:29;;;;;;;3.80;3.50;;;;;;;21.23;49.89;92749.13;5028821;28;20056;-75
2023/08/06 09:19:54;;;;;;;5.65;3.50;;;;;;;21.37;50.73;92750.88;5029920;28;20037;-75
2023/08/06 09:22:20;;;;;;;4.07;3.20;;;;;;;21.40;49.10;92734.63;5027382;28;20077;-75
2023/08/06 09:24:45;;;;;;;4.10;3.00;;;;;;;21.49;49.57;92742.25;5031002;28;20029;-74
2023/08/06 09:27:15;;;;;;;7.32;2.88;;;;;;;21.52;49.63;92748.75;5027602;28;20064;-74
2023/08/06 09:29:45;;;;;;;5.15;2.80;;;;;;;21.60;48.69;92734.00;5029833;28;20044;-74
2023/08/06 09:32:12;;;;;;;2.75;2.42;;;;;;;21.68;47.93;92743.56;5029659;28;20036;-75
2023/08/06 09:34:40;;;;;;;2.95;2.67;;;;;;;21.63;48.13;92739.38;5029726;28;20742;-76
2023/08/06 09:37:08;;;;;;;2.65;2.42;;;;;;;21.61;47.66;92722.03;5025027;28;20041;-75
2023/08/06 09:39:33;;;;;;;3.72;2.70;;;;;;;21.67;47.88;92712.25;5027726;28;20057;-76
2023/08/06 09:42:00;;;;;;;3.65;3.35;;;;;;;21.69;49.05;92735.03;5028019;28;20021;-74
2023/08/06 09:44:27;;;;;;;3.60;3.22;;;;;;;21.75;48.35;92724.53;5029712;28;20115;-76
2023/08/06 09:46:57;;;;;;;3.75;3.08;;;;;;;21.76;48.01;92729.50;5026183;28;20611;-76
2023/08/06 09:49:27;;;;;;;3.65;3.35;;;;;;;21.84;48.07;92727.47;5027485;28;20044;-75
2023/08/06 09:51:55;;;;;;;3.05;2.75;;;;;;;21.69;46.85;92720.72;5026385;28;20044;-75
2023/08/06 09:54:23;;;;;;;5.57;2.70;;;;;;;21.76;46.54;92742.25;5026005;28;20099;-74
2023/08/06 09:56:48;;;;;;;5.05;3.08;;;;;;;21.72;47.45;92725.31;5023965;28;20380;-76
2023/08/06 09:59:15;;;;;;;3.13;2.83;;;;;;;21.76;46.54;92742.25;5028101;28;20128;-75
2023/08/06 10:01:41;;;;;;;3.95;3.50;;;;;;;21.82;47.83;92736.00;5025087;28;20095;-75
2023/08/06 10:04:15;;;;;;;3.85;3.42;;;;;;;21.80;48.21;92726.75;5027787;28;20128;-75
2023/08/06 10:06:41;;;;;;;4.18;2.83;;;;;;;22.03;48.21;92739.56;5024160;28;20037;-75
2023/08/06 10:09:08;;;;;;;2.88;2.53;;;;;;;21.95;46.45;92741.59;5030442;28;20404;-76
2023/08/06 10:11:36;;;;;;;3.58;2.75;;;;;;;21.97;46.29;92755.50;5030056;28;20300;-75
2023/08/06 10:14:20;;;;;;;4.88;2.80;;;;;;;22.05;46.21;92748.00;5031347;28;20034;-74
2023/08/06 10:16:47;;;;;;;2.90;2.60;;;;;;;21.95;46.48;92738.13;5030235;28;20151;-75
2023/08/06 10:19:15;;;;;;;2.92;2.55;;;;;;;21.94;46.76;92742.78;5031057;28;20086;-75
2023/08/06 10:21:40;;;;;;;4.53;2.25;;;;;;;22.00;46.78;92738.41;5026936;28;20068;-76
2023/08/06 10:24:10;;;;;;;3.58;2.50;;;;;;;22.14;47.37;92748.28;5030953;28;20029;-75
2023/08/06 10:26:35;;;;;;;5.38;2.88;;;;;;;22.25;45.33;92744.22;5030777;28;20137;-74
2023/08/06 10:29:01;;;;;;;2.83;2.30;;;;;;;22.10;45.88;92736.72;5031341;28;20407;-74
2023/08/06 10:31:55;;;;;;;3.17;2.55;;;;;;;22.24;45.65;92756.22;5029605;28;20043;-75
2023/08/06 10:34:20;;;;;;;3.38;2.60;;;;;;;22.36;46.16;92757.59;5031460;28;20060;-75
2023/08/06 10:36:45;;;;;;;3.03;2.05;;;;;;;22.38;45.91;92749.84;5028161;28;20405;-75
2023/08/06 10:39:14;;;;;;;2.70;2.30;;;;;;;22.48;46.35;92770.56;5032640;28;20622;-75
2023/08/06 10:41:42;;;;;;;3.15;2.60;;;;;;;22.48;45.25;92764.38;5029905;28;20086;-75
2023/08/06 10:44:09;;;;;;;3.95;2.67;;;;;;;22.43;46.18;92767.56;5029047;28;20123;-75
2023/08/06 10:46:35;;;;;;;3.35;2.88;;;;;;;22.28;45.91;92770.50;5030364;28;20052;-75
2023/08/06 10:49:02;;;;;;;4.20;2.83;;;;;;;22.24;46.75;92764.34;5031322;28;20091;-76
2023/08/06 10:51:27;;;;;;;3.22;2.90;;;;;;;22.30;45.21;92759.25;5027880;28;20497;-75
2023/08/06 10:53:53;;;;;;;3.92;2.83;;;;;;;22.17;45.28;92778.00;5031459;28;20047;-75
2023/08/06 10:56:22;;;;;;;4.25;2.80;;;;;;;22.02;46.48;92776.69;5029214;28;20051;-75
2023/08/06 10:58:48;;;;;;;6.25;3.33;;;;;;;22.19;46.65;92789.16;5031463;28;20044;-75
2023/08/06 11:01:14;;;;;;;4.30;3.10;;;;;;;22.29;46.49;92785.56;5029170;28;20099;-75
2023/08/06 11:03:40;;;;;;;4.00;3.60;;;;;;;22.27;46.42;92793.34;5031314;28;20037;-75
2023/08/06 11:06:09;;;;;;;6.13;3.65;;;;;;;22.18;46.08;92790.38;5031400;28;20040;-75
2023/08/06 11:08:37;;;;;;;3.67;3.35;;;;;;;22.30;46.13;92797.94;5028925;28;20048;-75
2023/08/06 11:11:13;;;;;;;3.67;2.92;;;;;;;22.30;46.61;92786.31;5029151;28;20029;-75
2023/08/06 11:13:43;;;;;;;5.90;3.40;;;;;;;22.25;46.48;92779.44;5029380;28;20029;-75
2023/08/06 11:16:09;;;;;;;6.60;3.40;;;;;;;22.26;47.00;92780.97;5030815;28;20034;-75
2023/08/06 11:18:35;;;;;;;3.80;3.17;;;;;;;22.40;47.04;92800.88;5030573;28;20041;-75
2023/08/06 11:21:01;;;;;;;3.65;2.25;;;;;;;22.11;47.47;92809.41;5029893;28;20033;-75
2023/08/06 11:23:31;;;;;;;5.30;2.10;;;;;;;21.30;46.11;92792.31;5006551;28;20026;-74
2023/08/06 11:25:57;;;;;;;4.47;2.53;;;;;;;21.55;47.13;92815.63;5014043;28;20536;-74
2023/08/06 11:28:23;;;;;;;3.05;2.08;;;;;;;21.45;48.55;92801.81;5023864;28;20134;-73